sensor_id;sensor_type;location;lat;lon;timestamp;P1;durP1;ratioP1;P2;durP2;ratioP2
72926;SDS011;61071;51.618;19.388;2023-03-20T00:03:54;25.73;;;17.40;;
72926;SDS011;61071;51.618;19.388;2023-03-20T00:06:25;23.75;;;16.60;;
72926;SDS011;61071;51.618;19.388;2023-03-20T00:08:55;25.77;;;17.27;;
72926;SDS011;61071;51.618;19.388;2023-03-20T00:14:03;27.27;;;18.77;;
72926;SDS011;61071;51.618;19.388;2023-03-20T00:16:33;25.63;;;18.10;;
72926;SDS011;61071;51.618;19.388;2023-03-20T00:19:02;26.88;;;19.27;;
72926;SDS011;61071;51.618;19.388;2023-03-20T00:21:30;29.58;;;19.80;;
72926;SDS011;61071;51.618;19.388;2023-03-20T00:23:56;29.48;;;20.30;;
72926;SDS011;61071;51.618;19.388;2023-03-20T00:26:24;30.58;;;20.45;;
72926;SDS011;61071;51.618;19.388;2023-03-20T00:28:59;24.80;;;16.92;;
72926;SDS011;61071;51.618;19.388;2023-03-20T00:31:29;22.95;;;14.75;;
72926;SDS011;61071;51.618;19.388;2023-03-20T00:34:02;25.48;;;16.15;;
72926;SDS011;61071;51.618;19.388;2023-03-20T00:36:35;21.52;;;13.18;;
72926;SDS011;61071;51.618;19.388;2023-03-20T00:39:01;19.73;;;13.80;;
72926;SDS011;61071;51.618;19.388;2023-03-20T00:44:01;20.42;;;14.43;;
72926;SDS011;61071;51.618;19.388;2023-03-20T00:46:53;20.00;;;13.55;;
72926;SDS011;61071;51.618;19.388;2023-03-20T00:49:24;21.35;;;14.00;;
72926;SDS011;61071;51.618;19.388;2023-03-20T00:51:53;20.35;;;14.32;;
72926;SDS011;61071;51.618;19.388;2023-03-20T00:54:19;20.92;;;14.45;;
72926;SDS011;61071;51.618;19.388;2023-03-20T00:59:23;22.48;;;14.75;;
72926;SDS011;61071;51.618;19.388;2023-03-20T01:01:56;20.92;;;14.57;;
72926;SDS011;61071;51.618;19.388;2023-03-20T01:04:23;24.42;;;15.13;;
72926;SDS011;61071;51.618;19.388;2023-03-20T01:06:51;25.00;;;15.70;;
72926;SDS011;61071;51.618;19.388;2023-03-20T01:09:17;23.30;;;16.65;;
72926;SDS011;61071;51.618;19.388;2023-03-20T01:11:43;24.42;;;15.50;;
72926;SDS011;61071;51.618;19.388;2023-03-20T01:14:11;20.75;;;15.18;;
72926;SDS011;61071;51.618;19.388;2023-03-20T01:16:40;23.02;;;15.32;;
72926;SDS011;61071;51.618;19.388;2023-03-20T01:19:05;19.40;;;14.20;;
72926;SDS011;61071;51.618;19.388;2023-03-20T01:21:31;17.73;;;12.55;;
72926;SDS011;61071;51.618;19.388;2023-03-20T01:23:57;16.10;;;11.63;;
72926;SDS011;61071;51.618;19.388;2023-03-20T01:26:55;16.73;;;11.70;;
72926;SDS011;61071;51.618;19.388;2023-03-20T01:29:20;14.57;;;10.68;;
72926;SDS011;61071;51.618;19.388;2023-03-20T01:31:49;14.23;;;10.13;;
72926;SDS011;61071;51.618;19.388;2023-03-20T01:34:15;17.13;;;11.43;;
72926;SDS011;61071;51.618;19.388;2023-03-20T01:36:53;14.20;;;10.40;;
72926;SDS011;61071;51.618;19.388;2023-03-20T01:39:27;16.80;;;11.27;;
72926;SDS011;61071;51.618;19.388;2023-03-20T01:41:58;19.52;;;12.63;;
72926;SDS011;61071;51.618;19.388;2023-03-20T01:44:27;21.30;;;13.02;;
72926;SDS011;61071;51.618;19.388;2023-03-20T01:46:55;20.27;;;13.45;;
72926;SDS011;61071;51.618;19.388;2023-03-20T01:51:48;22.65;;;15.27;;
72926;SDS011;61071;51.618;19.388;2023-03-20T01:54:17;25.77;;;17.63;;
72926;SDS011;61071;51.618;19.388;2023-03-20T01:57:02;25.63;;;16.75;;
72926;SDS011;61071;51.618;19.388;2023-03-20T02:02:24;25.55;;;17.33;;
72926;SDS011;61071;51.618;19.388;2023-03-20T02:04:57;29.30;;;18.23;;
72926;SDS011;61071;51.618;19.388;2023-03-20T02:07:30;33.67;;;20.20;;
72926;SDS011;61071;51.618;19.388;2023-03-20T02:09:59;28.30;;;17.48;;
72926;SDS011;61071;51.618;19.388;2023-03-20T02:12:33;27.35;;;18.85;;
72926;SDS011;61071;51.618;19.388;2023-03-20T02:15:00;29.33;;;18.85;;
72926;SDS011;61071;51.618;19.388;2023-03-20T02:17:27;23.88;;;17.60;;
72926;SDS011;61071;51.618;19.388;2023-03-20T02:43:01;23.02;;;14.25;;
72926;SDS011;61071;51.618;19.388;2023-03-20T02:54:12;16.25;;;11.38;;
72926;SDS011;61071;51.618;19.388;2023-03-20T02:57:09;17.13;;;11.65;;
72926;SDS011;61071;51.618;19.388;2023-03-20T03:03:04;14.45;;;10.57;;
72926;SDS011;61071;51.618;19.388;2023-03-20T03:05:42;17.50;;;10.43;;
72926;SDS011;61071;51.618;19.388;2023-03-20T03:08:16;17.13;;;11.45;;
72926;SDS011;61071;51.618;19.388;2023-03-20T03:10:53;18.08;;;11.73;;
72926;SDS011;61071;51.618;19.388;2023-03-20T03:13:31;20.35;;;12.18;;
72926;SDS011;61071;51.618;19.388;2023-03-20T03:16:04;16.48;;;11.52;;
72926;SDS011;61071;51.618;19.388;2023-03-20T03:18:36;19.00;;;12.32;;
72926;SDS011;61071;51.618;19.388;2023-03-20T03:21:06;19.67;;;13.38;;
72926;SDS011;61071;51.618;19.388;2023-03-20T03:23:38;23.58;;;14.30;;
72926;SDS011;61071;51.618;19.388;2023-03-20T03:26:16;21.08;;;14.35;;
72926;SDS011;61071;51.618;19.388;2023-03-20T03:28:49;24.63;;;15.45;;
72926;SDS011;61071;51.618;19.388;2023-03-20T03:31:22;26.00;;;15.82;;
72926;SDS011;61071;51.618;19.388;2023-03-20T03:33:51;20.88;;;15.45;;
72926;SDS011;61071;51.618;19.388;2023-03-20T03:36:24;24.27;;;15.13;;
72926;SDS011;61071;51.618;19.388;2023-03-20T03:41:41;25.08;;;15.80;;
72926;SDS011;61071;51.618;19.388;2023-03-20T03:44:30;24.80;;;14.50;;
72926;SDS011;61071;51.618;19.388;2023-03-20T03:48:11;19.45;;;13.57;;
72926;SDS011;61071;51.618;19.388;2023-03-20T03:50:42;22.05;;;13.30;;
72926;SDS011;61071;51.618;19.388;2023-03-20T03:53:12;21.10;;;14.15;;
72926;SDS011;61071;51.618;19.388;2023-03-20T03:55:50;18.00;;;13.18;;
72926;SDS011;61071;51.618;19.388;2023-03-20T04:01:11;23.85;;;14.18;;
72926;SDS011;61071;51.618;19.388;2023-03-20T04:03:45;25.58;;;14.70;;
72926;SDS011;61071;51.618;19.388;2023-03-20T04:06:16;22.55;;;15.02;;
72926;SDS011;61071;51.618;19.388;2023-03-20T04:08:43;22.05;;;14.90;;
72926;SDS011;61071;51.618;19.388;2023-03-20T04:11:16;25.52;;;15.40;;
72926;SDS011;61071;51.618;19.388;2023-03-20T04:13:46;22.40;;;15.85;;
72926;SDS011;61071;51.618;19.388;2023-03-20T04:16:15;26.92;;;16.75;;
72926;SDS011;61071;51.618;19.388;2023-03-20T04:18:42;22.27;;;16.70;;
72926;SDS011;61071;51.618;19.388;2023-03-20T04:21:09;26.40;;;16.67;;
72926;SDS011;61071;51.618;19.388;2023-03-20T04:23:35;23.02;;;16.30;;
72926;SDS011;61071;51.618;19.388;2023-03-20T04:26:01;25.63;;;16.48;;
72926;SDS011;61071;51.618;19.388;2023-03-20T04:28:28;28.52;;;16.95;;
72926;SDS011;61071;51.618;19.388;2023-03-20T04:30:54;32.63;;;19.42;;
72926;SDS011;61071;51.618;19.388;2023-03-20T04:33:22;30.17;;;17.27;;
72926;SDS011;61071;51.618;19.388;2023-03-20T04:35:49;32.10;;;18.75;;
72926;SDS011;61071;51.618;19.388;2023-03-20T04:38:16;24.40;;;17.27;;
72926;SDS011;61071;51.618;19.388;2023-03-20T04:40:42;23.58;;;16.70;;
72926;SDS011;61071;51.618;19.388;2023-03-20T04:43:10;23.00;;;15.88;;
72926;SDS011;61071;51.618;19.388;2023-03-20T04:45:37;23.95;;;16.88;;
72926;SDS011;61071;51.618;19.388;2023-03-20T04:48:03;24.92;;;17.13;;
72926;SDS011;61071;51.618;19.388;2023-03-20T04:50:29;26.95;;;17.00;;
72926;SDS011;61071;51.618;19.388;2023-03-20T04:52:55;26.45;;;16.95;;
72926;SDS011;61071;51.618;19.388;2023-03-20T04:55:21;24.67;;;17.40;;
72926;SDS011;61071;51.618;19.388;2023-03-20T04:57:47;27.15;;;18.08;;
72926;SDS011;61071;51.618;19.388;2023-03-20T05:00:13;33.05;;;17.13;;
72926;SDS011;61071;51.618;19.388;2023-03-20T05:02:40;33.15;;;17.08;;
72926;SDS011;61071;51.618;19.388;2023-03-20T05:05:07;25.75;;;17.52;;
72926;SDS011;61071;51.618;19.388;2023-03-20T05:07:32;26.40;;;17.77;;
72926;SDS011;61071;51.618;19.388;2023-03-20T05:09:58;26.63;;;17.30;;
72926;SDS011;61071;51.618;19.388;2023-03-20T05:12:24;25.38;;;17.27;;
72926;SDS011;61071;51.618;19.388;2023-03-20T05:14:51;24.33;;;16.00;;
72926;SDS011;61071;51.618;19.388;2023-03-20T05:17:19;25.30;;;17.42;;
72926;SDS011;61071;51.618;19.388;2023-03-20T05:19:47;26.73;;;17.25;;
72926;SDS011;61071;51.618;19.388;2023-03-20T05:22:14;25.13;;;17.55;;
72926;SDS011;61071;51.618;19.388;2023-03-20T05:24:41;27.70;;;17.98;;
72926;SDS011;61071;51.618;19.388;2023-03-20T05:27:06;26.23;;;17.38;;
72926;SDS011;61071;51.618;19.388;2023-03-20T05:29:32;25.45;;;18.13;;
72926;SDS011;61071;51.618;19.388;2023-03-20T05:31:57;27.85;;;18.08;;
72926;SDS011;61071;51.618;19.388;2023-03-20T05:34:23;26.92;;;17.20;;
72926;SDS011;61071;51.618;19.388;2023-03-20T05:36:49;26.58;;;17.30;;
72926;SDS011;61071;51.618;19.388;2023-03-20T05:39:15;23.10;;;16.27;;
72926;SDS011;61071;51.618;19.388;2023-03-20T05:41:40;25.90;;;18.05;;
72926;SDS011;61071;51.618;19.388;2023-03-20T05:44:06;23.55;;;16.73;;
72926;SDS011;61071;51.618;19.388;2023-03-20T05:46:32;24.48;;;16.10;;
72926;SDS011;61071;51.618;19.388;2023-03-20T05:48:57;27.10;;;16.50;;
72926;SDS011;61071;51.618;19.388;2023-03-20T05:51:23;26.25;;;17.25;;
72926;SDS011;61071;51.618;19.388;2023-03-20T05:53:49;33.28;;;17.38;;
72926;SDS011;61071;51.618;19.388;2023-03-20T05:56:15;25.65;;;17.15;;
72926;SDS011;61071;51.618;19.388;2023-03-20T05:58:41;25.85;;;17.55;;
72926;SDS011;61071;51.618;19.388;2023-03-20T06:01:06;23.50;;;16.45;;
72926;SDS011;61071;51.618;19.388;2023-03-20T06:03:32;25.67;;;16.83;;
72926;SDS011;61071;51.618;19.388;2023-03-20T06:05:58;26.63;;;17.58;;
72926;SDS011;61071;51.618;19.388;2023-03-20T06:08:23;24.33;;;16.83;;
72926;SDS011;61071;51.618;19.388;2023-03-20T06:10:50;22.65;;;15.77;;
72926;SDS011;61071;51.618;19.388;2023-03-20T06:13:16;22.83;;;15.98;;
72926;SDS011;61071;51.618;19.388;2023-03-20T06:15:41;27.20;;;17.75;;
72926;SDS011;61071;51.618;19.388;2023-03-20T06:18:07;24.42;;;17.33;;
72926;SDS011;61071;51.618;19.388;2023-03-20T06:20:33;25.83;;;17.73;;
72926;SDS011;61071;51.618;19.388;2023-03-20T06:22:59;25.70;;;18.50;;
72926;SDS011;61071;51.618;19.388;2023-03-20T06:25:24;24.00;;;17.48;;
72926;SDS011;61071;51.618;19.388;2023-03-20T06:27:50;25.90;;;17.27;;
72926;SDS011;61071;51.618;19.388;2023-03-20T06:30:16;25.38;;;18.20;;
72926;SDS011;61071;51.618;19.388;2023-03-20T06:32:42;30.85;;;19.73;;
72926;SDS011;61071;51.618;19.388;2023-03-20T06:35:08;28.00;;;19.50;;
72926;SDS011;61071;51.618;19.388;2023-03-20T06:37:35;25.15;;;18.67;;
72926;SDS011;61071;51.618;19.388;2023-03-20T06:40:02;32.85;;;19.52;;
72926;SDS011;61071;51.618;19.388;2023-03-20T06:42:29;28.80;;;19.55;;
72926;SDS011;61071;51.618;19.388;2023-03-20T06:44:55;28.88;;;19.42;;
72926;SDS011;61071;51.618;19.388;2023-03-20T06:47:21;29.55;;;20.30;;
72926;SDS011;61071;51.618;19.388;2023-03-20T06:49:47;28.00;;;19.77;;
72926;SDS011;61071;51.618;19.388;2023-03-20T06:52:14;26.67;;;19.10;;
72926;SDS011;61071;51.618;19.388;2023-03-20T06:54:42;29.02;;;19.98;;
72926;SDS011;61071;51.618;19.388;2023-03-20T06:57:08;28.35;;;19.50;;
72926;SDS011;61071;51.618;19.388;2023-03-20T06:59:34;27.40;;;19.30;;
72926;SDS011;61071;51.618;19.388;2023-03-20T07:02:01;26.67;;;20.20;;
72926;SDS011;61071;51.618;19.388;2023-03-20T07:04:27;27.30;;;20.77;;
72926;SDS011;61071;51.618;19.388;2023-03-20T07:06:53;28.40;;;20.52;;
72926;SDS011;61071;51.618;19.388;2023-03-20T07:09:19;29.60;;;21.58;;
72926;SDS011;61071;51.618;19.388;2023-03-20T07:11:46;30.92;;;20.30;;
72926;SDS011;61071;51.618;19.388;2023-03-20T07:14:12;32.17;;;22.95;;
72926;SDS011;61071;51.618;19.388;2023-03-20T07:16:40;31.50;;;21.02;;
72926;SDS011;61071;51.618;19.388;2023-03-20T07:19:06;31.27;;;22.23;;
72926;SDS011;61071;51.618;19.388;2023-03-20T07:21:31;30.98;;;21.10;;
72926;SDS011;61071;51.618;19.388;2023-03-20T07:23:58;35.45;;;20.80;;
72926;SDS011;61071;51.618;19.388;2023-03-20T07:26:25;24.75;;;19.55;;
72926;SDS011;61071;51.618;19.388;2023-03-20T07:28:51;23.45;;;18.48;;
72926;SDS011;61071;51.618;19.388;2023-03-20T07:31:24;25.35;;;18.83;;
72926;SDS011;61071;51.618;19.388;2023-03-20T07:33:52;27.88;;;19.05;;
72926;SDS011;61071;51.618;19.388;2023-03-20T07:36:18;24.70;;;18.65;;
72926;SDS011;61071;51.618;19.388;2023-03-20T07:38:44;27.40;;;19.02;;
72926;SDS011;61071;51.618;19.388;2023-03-20T07:41:11;25.85;;;19.02;;
72926;SDS011;61071;51.618;19.388;2023-03-20T07:43:37;25.23;;;19.13;;
72926;SDS011;61071;51.618;19.388;2023-03-20T07:46:03;29.90;;;20.33;;
72926;SDS011;61071;51.618;19.388;2023-03-20T07:48:32;30.40;;;19.90;;
72926;SDS011;61071;51.618;19.388;2023-03-20T07:50:59;29.15;;;19.95;;
72926;SDS011;61071;51.618;19.388;2023-03-20T07:53:24;28.77;;;18.83;;
72926;SDS011;61071;51.618;19.388;2023-03-20T07:55:50;29.45;;;20.33;;
72926;SDS011;61071;51.618;19.388;2023-03-20T07:58:16;26.27;;;20.17;;
72926;SDS011;61071;51.618;19.388;2023-03-20T08:00:42;25.90;;;19.60;;
72926;SDS011;61071;51.618;19.388;2023-03-20T08:03:08;29.65;;;20.20;;
72926;SDS011;61071;51.618;19.388;2023-03-20T08:05:34;28.48;;;20.20;;
72926;SDS011;61071;51.618;19.388;2023-03-20T08:08:01;29.73;;;21.05;;
72926;SDS011;61071;51.618;19.388;2023-03-20T08:10:27;30.17;;;21.00;;
72926;SDS011;61071;51.618;19.388;2023-03-20T08:12:52;27.05;;;20.67;;
72926;SDS011;61071;51.618;19.388;2023-03-20T08:15:18;28.35;;;19.63;;
72926;SDS011;61071;51.618;19.388;2023-03-20T08:17:44;29.95;;;19.73;;
72926;SDS011;61071;51.618;19.388;2023-03-20T08:20:11;24.33;;;19.55;;
72926;SDS011;61071;51.618;19.388;2023-03-20T08:22:45;27.85;;;20.70;;
72926;SDS011;61071;51.618;19.388;2023-03-20T08:25:11;28.35;;;21.65;;
72926;SDS011;61071;51.618;19.388;2023-03-20T08:27:36;32.33;;;20.55;;
72926;SDS011;61071;51.618;19.388;2023-03-20T08:30:03;26.92;;;20.08;;
72926;SDS011;61071;51.618;19.388;2023-03-20T08:32:29;27.70;;;20.15;;
72926;SDS011;61071;51.618;19.388;2023-03-20T08:34:55;29.73;;;20.33;;
72926;SDS011;61071;51.618;19.388;2023-03-20T08:37:21;31.30;;;20.25;;
72926;SDS011;61071;51.618;19.388;2023-03-20T08:39:47;27.25;;;20.45;;
72926;SDS011;61071;51.618;19.388;2023-03-20T08:42:13;24.23;;;19.67;;
72926;SDS011;61071;51.618;19.388;2023-03-20T08:44:39;28.55;;;20.15;;
72926;SDS011;61071;51.618;19.388;2023-03-20T08:47:05;25.65;;;20.67;;
72926;SDS011;61071;51.618;19.388;2023-03-20T08:49:32;29.42;;;21.85;;
72926;SDS011;61071;51.618;19.388;2023-03-20T08:51:59;27.38;;;21.02;;
72926;SDS011;61071;51.618;19.388;2023-03-20T08:54:25;26.50;;;20.98;;
72926;SDS011;61071;51.618;19.388;2023-03-20T08:56:51;28.35;;;21.70;;
72926;SDS011;61071;51.618;19.388;2023-03-20T08:59:17;27.08;;;20.55;;
72926;SDS011;61071;51.618;19.388;2023-03-20T09:01:43;27.42;;;21.38;;
72926;SDS011;61071;51.618;19.388;2023-03-20T09:04:10;29.10;;;21.20;;
72926;SDS011;61071;51.618;19.388;2023-03-20T09:06:37;25.80;;;20.42;;
72926;SDS011;61071;51.618;19.388;2023-03-20T09:09:05;26.52;;;20.75;;
72926;SDS011;61071;51.618;19.388;2023-03-20T09:11:32;30.75;;;21.80;;
72926;SDS011;61071;51.618;19.388;2023-03-20T09:13:58;30.13;;;21.88;;
72926;SDS011;61071;51.618;19.388;2023-03-20T09:16:25;27.30;;;20.90;;
72926;SDS011;61071;51.618;19.388;2023-03-20T09:18:52;30.55;;;20.67;;
72926;SDS011;61071;51.618;19.388;2023-03-20T09:21:18;27.70;;;21.25;;
72926;SDS011;61071;51.618;19.388;2023-03-20T09:23:44;26.05;;;20.50;;
72926;SDS011;61071;51.618;19.388;2023-03-20T09:26:09;27.02;;;20.52;;
72926;SDS011;61071;51.618;19.388;2023-03-20T09:28:35;25.48;;;19.45;;
72926;SDS011;61071;51.618;19.388;2023-03-20T09:31:01;25.23;;;19.35;;
72926;SDS011;61071;51.618;19.388;2023-03-20T09:33:26;27.55;;;20.67;;
72926;SDS011;61071;51.618;19.388;2023-03-20T09:35:52;25.98;;;19.33;;
72926;SDS011;61071;51.618;19.388;2023-03-20T09:38:18;26.95;;;19.52;;
72926;SDS011;61071;51.618;19.388;2023-03-20T09:41:01;27.65;;;19.35;;
72926;SDS011;61071;51.618;19.388;2023-03-20T09:55:00;24.33;;;17.65;;
72926;SDS011;61071;51.618;19.388;2023-03-20T09:58:11;23.33;;;18.15;;
72926;SDS011;61071;51.618;19.388;2023-03-20T10:00:45;25.58;;;18.17;;
72926;SDS011;61071;51.618;19.388;2023-03-20T10:03:19;22.38;;;17.60;;
72926;SDS011;61071;51.618;19.388;2023-03-20T10:06:00;26.52;;;17.25;;
72926;SDS011;61071;51.618;19.388;2023-03-20T10:08:33;22.45;;;17.05;;
72926;SDS011;61071;51.618;19.388;2023-03-20T10:14:22;18.33;;;14.43;;
72926;SDS011;61071;51.618;19.388;2023-03-20T10:19:56;29.48;;;18.77;;
72926;SDS011;61071;51.618;19.388;2023-03-20T10:22:29;19.15;;;13.73;;
72926;SDS011;61071;51.618;19.388;2023-03-20T10:40:03;14.35;;;11.43;;
72926;SDS011;61071;51.618;19.388;2023-03-20T10:42:37;17.27;;;12.68;;
72926;SDS011;61071;51.618;19.388;2023-03-20T10:45:12;15.18;;;13.00;;
72926;SDS011;61071;51.618;19.388;2023-03-20T10:47:43;21.05;;;16.13;;
72926;SDS011;61071;51.618;19.388;2023-03-20T10:50:20;23.02;;;16.55;;
72926;SDS011;61071;51.618;19.388;2023-03-20T10:53:18;17.98;;;14.95;;
72926;SDS011;61071;51.618;19.388;2023-03-20T10:55:53;20.52;;;14.40;;
72926;SDS011;61071;51.618;19.388;2023-03-20T10:58:23;21.13;;;16.10;;
72926;SDS011;61071;51.618;19.388;2023-03-20T11:00:55;24.83;;;16.23;;
72926;SDS011;61071;51.618;19.388;2023-03-20T11:03:24;25.20;;;17.08;;
72926;SDS011;61071;51.618;19.388;2023-03-20T11:06:03;18.95;;;14.63;;
72926;SDS011;61071;51.618;19.388;2023-03-20T11:08:42;22.30;;;14.98;;
72926;SDS011;61071;51.618;19.388;2023-03-20T11:11:20;15.82;;;12.75;;
72926;SDS011;61071;51.618;19.388;2023-03-20T11:13:52;18.42;;;14.40;;
72926;SDS011;61071;51.618;19.388;2023-03-20T11:16:20;21.50;;;15.50;;
72926;SDS011;61071;51.618;19.388;2023-03-20T11:18:49;19.02;;;15.55;;
72926;SDS011;61071;51.618;19.388;2023-03-20T11:21:22;18.75;;;15.27;;
72926;SDS011;61071;51.618;19.388;2023-03-20T11:23:53;21.80;;;15.52;;
72926;SDS011;61071;51.618;19.388;2023-03-20T11:26:36;15.60;;;12.05;;
72926;SDS011;61071;51.618;19.388;2023-03-20T11:29:06;16.85;;;13.82;;
72926;SDS011;61071;51.618;19.388;2023-03-20T11:31:53;19.42;;;12.88;;
72926;SDS011;61071;51.618;19.388;2023-03-20T11:34:22;16.55;;;13.30;;
72926;SDS011;61071;51.618;19.388;2023-03-20T11:36:59;16.17;;;12.30;;
72926;SDS011;61071;51.618;19.388;2023-03-20T11:39:30;14.00;;;11.68;;
72926;SDS011;61071;51.618;19.388;2023-03-20T11:41:57;12.43;;;10.50;;
72926;SDS011;61071;51.618;19.388;2023-03-20T11:44:27;12.25;;;10.75;;
72926;SDS011;61071;51.618;19.388;2023-03-20T11:47:00;12.48;;;11.05;;
72926;SDS011;61071;51.618;19.388;2023-03-20T11:49:56;13.57;;;11.05;;
72926;SDS011;61071;51.618;19.388;2023-03-20T11:52:28;13.35;;;10.65;;
72926;SDS011;61071;51.618;19.388;2023-03-20T11:55:05;13.98;;;11.23;;
72926;SDS011;61071;51.618;19.388;2023-03-20T11:57:57;13.48;;;10.38;;
72926;SDS011;61071;51.618;19.388;2023-03-20T12:00:29;13.73;;;11.05;;
72926;SDS011;61071;51.618;19.388;2023-03-20T12:03:05;12.02;;;10.70;;
72926;SDS011;61071;51.618;19.388;2023-03-20T12:06:07;14.02;;;10.90;;
72926;SDS011;61071;51.618;19.388;2023-03-20T12:08:50;13.05;;;11.07;;
72926;SDS011;61071;51.618;19.388;2023-03-20T12:11:30;13.82;;;11.98;;
72926;SDS011;61071;51.618;19.388;2023-03-20T12:19:52;14.13;;;11.55;;
72926;SDS011;61071;51.618;19.388;2023-03-20T12:22:27;14.55;;;11.35;;
72926;SDS011;61071;51.618;19.388;2023-03-20T12:33:49;17.83;;;10.98;;
72926;SDS011;61071;51.618;19.388;2023-03-20T12:36:45;13.50;;;11.20;;
72926;SDS011;61071;51.618;19.388;2023-03-20T12:39:14;13.90;;;11.02;;
72926;SDS011;61071;51.618;19.388;2023-03-20T13:01:51;16.73;;;13.15;;
72926;SDS011;61071;51.618;19.388;2023-03-20T13:07:18;16.55;;;12.82;;
72926;SDS011;61071;51.618;19.388;2023-03-20T13:09:53;14.95;;;12.63;;
72926;SDS011;61071;51.618;19.388;2023-03-20T13:15:57;19.25;;;12.40;;
72926;SDS011;61071;51.618;19.388;2023-03-20T13:21:38;18.90;;;13.43;;
72926;SDS011;61071;51.618;19.388;2023-03-20T13:24:39;14.05;;;11.55;;
72926;SDS011;61071;51.618;19.388;2023-03-20T13:30:20;11.75;;;8.48;;
72926;SDS011;61071;51.618;19.388;2023-03-20T13:32:56;16.52;;;8.43;;
72926;SDS011;61071;51.618;19.388;2023-03-20T13:36:06;12.02;;;9.13;;
72926;SDS011;61071;51.618;19.388;2023-03-20T13:38:51;13.38;;;9.13;;
72926;SDS011;61071;51.618;19.388;2023-03-20T13:41:24;13.57;;;8.80;;
72926;SDS011;61071;51.618;19.388;2023-03-20T13:43:53;10.70;;;9.30;;
72926;SDS011;61071;51.618;19.388;2023-03-20T13:46:32;11.52;;;9.20;;
72926;SDS011;61071;51.618;19.388;2023-03-20T13:52:28;10.15;;;8.00;;
72926;SDS011;61071;51.618;19.388;2023-03-20T13:55:23;12.85;;;7.97;;
72926;SDS011;61071;51.618;19.388;2023-03-20T14:04:21;13.13;;;9.30;;
72926;SDS011;61071;51.618;19.388;2023-03-20T14:06:52;12.98;;;9.45;;
72926;SDS011;61071;51.618;19.388;2023-03-20T14:12:02;10.02;;;8.30;;
72926;SDS011;61071;51.618;19.388;2023-03-20T14:14:33;10.45;;;8.27;;
72926;SDS011;61071;51.618;19.388;2023-03-20T14:19:38;10.32;;;7.72;;
72926;SDS011;61071;51.618;19.388;2023-03-20T14:22:04;10.30;;;8.45;;
72926;SDS011;61071;51.618;19.388;2023-03-20T14:24:33;10.82;;;8.02;;
72926;SDS011;61071;51.618;19.388;2023-03-20T14:27:02;12.90;;;8.43;;
72926;SDS011;61071;51.618;19.388;2023-03-20T14:32:02;17.30;;;9.50;;
72926;SDS011;61071;51.618;19.388;2023-03-20T14:37:44;11.15;;;9.07;;
72926;SDS011;61071;51.618;19.388;2023-03-20T14:40:39;10.05;;;8.38;;
72926;SDS011;61071;51.618;19.388;2023-03-20T14:46:37;13.60;;;9.18;;
72926;SDS011;61071;51.618;19.388;2023-03-20T14:51:52;9.30;;;8.15;;
72926;SDS011;61071;51.618;19.388;2023-03-20T14:54:39;11.68;;;8.73;;
72926;SDS011;61071;51.618;19.388;2023-03-20T14:57:09;9.43;;;7.65;;
72926;SDS011;61071;51.618;19.388;2023-03-20T14:59:49;14.48;;;9.02;;
72926;SDS011;61071;51.618;19.388;2023-03-20T15:02:36;10.07;;;7.28;;
72926;SDS011;61071;51.618;19.388;2023-03-20T15:05:01;9.40;;;7.50;;
72926;SDS011;61071;51.618;19.388;2023-03-20T15:07:28;11.05;;;8.07;;
72926;SDS011;61071;51.618;19.388;2023-03-20T15:09:59;11.10;;;8.00;;
72926;SDS011;61071;51.618;19.388;2023-03-20T15:12:27;9.80;;;7.43;;
72926;SDS011;61071;51.618;19.388;2023-03-20T15:15:02;12.75;;;7.75;;
72926;SDS011;61071;51.618;19.388;2023-03-20T15:17:35;14.38;;;7.63;;
72926;SDS011;61071;51.618;19.388;2023-03-20T15:22:46;9.40;;;7.65;;
72926;SDS011;61071;51.618;19.388;2023-03-20T15:25:20;11.43;;;8.85;;
72926;SDS011;61071;51.618;19.388;2023-03-20T15:28:02;11.05;;;8.07;;
72926;SDS011;61071;51.618;19.388;2023-03-20T15:30:31;10.65;;;8.10;;
72926;SDS011;61071;51.618;19.388;2023-03-20T15:33:01;13.53;;;7.83;;
72926;SDS011;61071;51.618;19.388;2023-03-20T15:35:27;9.07;;;7.53;;
72926;SDS011;61071;51.618;19.388;2023-03-20T15:37:53;11.40;;;7.63;;
72926;SDS011;61071;51.618;19.388;2023-03-20T15:40:29;11.30;;;8.10;;
72926;SDS011;61071;51.618;19.388;2023-03-20T15:42:57;11.32;;;7.63;;
72926;SDS011;61071;51.618;19.388;2023-03-20T15:45:50;9.48;;;7.60;;
72926;SDS011;61071;51.618;19.388;2023-03-20T15:48:21;12.13;;;8.63;;
72926;SDS011;61071;51.618;19.388;2023-03-20T15:50:53;10.95;;;7.90;;
72926;SDS011;61071;51.618;19.388;2023-03-20T15:53:34;12.18;;;8.00;;
72926;SDS011;61071;51.618;19.388;2023-03-20T15:56:06;11.73;;;9.10;;
72926;SDS011;61071;51.618;19.388;2023-03-20T15:58:39;12.60;;;8.80;;
72926;SDS011;61071;51.618;19.388;2023-03-20T16:01:07;11.50;;;9.73;;
72926;SDS011;61071;51.618;19.388;2023-03-20T16:03:39;11.95;;;9.77;;
72926;SDS011;61071;51.618;19.388;2023-03-20T16:06:07;11.43;;;9.13;;
72926;SDS011;61071;51.618;19.388;2023-03-20T16:08:36;10.68;;;8.00;;
72926;SDS011;61071;51.618;19.388;2023-03-20T16:11:12;12.27;;;8.10;;
72926;SDS011;61071;51.618;19.388;2023-03-20T16:13:45;12.68;;;8.32;;
72926;SDS011;61071;51.618;19.388;2023-03-20T16:16:13;11.38;;;8.10;;
72926;SDS011;61071;51.618;19.388;2023-03-20T16:18:48;12.20;;;8.52;;
72926;SDS011;61071;51.618;19.388;2023-03-20T16:21:23;10.15;;;8.27;;
72926;SDS011;61071;51.618;19.388;2023-03-20T16:23:55;10.73;;;8.10;;
72926;SDS011;61071;51.618;19.388;2023-03-20T16:26:24;10.90;;;8.95;;
72926;SDS011;61071;51.618;19.388;2023-03-20T16:28:52;15.27;;;11.20;;
72926;SDS011;61071;51.618;19.388;2023-03-20T16:31:24;17.38;;;12.25;;
72926;SDS011;61071;51.618;19.388;2023-03-20T16:33:59;23.17;;;18.17;;
72926;SDS011;61071;51.618;19.388;2023-03-20T16:36:31;10.90;;;9.60;;
72926;SDS011;61071;51.618;19.388;2023-03-20T16:39:07;15.27;;;11.30;;
72926;SDS011;61071;51.618;19.388;2023-03-20T16:41:43;20.13;;;14.75;;
72926;SDS011;61071;51.618;19.388;2023-03-20T16:47:43;13.60;;;10.10;;
72926;SDS011;61071;51.618;19.388;2023-03-20T16:52:16;17.63;;;11.63;;
72926;SDS011;61071;51.618;19.388;2023-03-20T16:54:49;12.15;;;10.25;;
72926;SDS011;61071;51.618;19.388;2023-03-20T16:57:16;17.30;;;12.45;;
72926;SDS011;61071;51.618;19.388;2023-03-20T16:59:43;12.10;;;10.13;;
72926;SDS011;61071;51.618;19.388;2023-03-20T17:02:43;11.90;;;10.15;;
72926;SDS011;61071;51.618;19.388;2023-03-20T17:05:06;14.75;;;10.98;;
72926;SDS011;61071;51.618;19.388;2023-03-20T17:07:37;12.30;;;10.55;;
72926;SDS011;61071;51.618;19.388;2023-03-20T17:12:40;82.25;;;73.22;;
72926;SDS011;61071;51.618;19.388;2023-03-20T17:15:08;18.27;;;14.73;;
72926;SDS011;61071;51.618;19.388;2023-03-20T17:17:39;14.85;;;11.50;;
72926;SDS011;61071;51.618;19.388;2023-03-20T17:20:05;15.73;;;12.65;;
72926;SDS011;61071;51.618;19.388;2023-03-20T17:22:32;15.98;;;12.48;;
72926;SDS011;61071;51.618;19.388;2023-03-20T17:24:58;15.70;;;12.27;;
72926;SDS011;61071;51.618;19.388;2023-03-20T17:27:24;16.60;;;12.95;;